Time;durP1;ratioP1;P1;durP2;ratioP2;P2;SDS_P1;SDS_P2;PMS_P1;PMS_P2;Temp;Humidity;BMP_temperature;BMP_pressure;BME280_temperature;BME280_humidity;BME280_pressure;Samples;Min_cycle;Max_cycle;Signal;HPM_P1;HPM_P2
2021/10/30 00:00:04;;;;;;;;;14.25;13.25;;;;;13.81;73.71;99576.16;5077996;28;45367;-62
2021/10/30 00:02:29;;;;;;;;;17.75;16.25;;;;;13.82;74.02;99566.41;5079294;27;45227;-61
2021/10/30 00:04:54;;;;;;;;;17.00;13.00;;;;;13.83;73.51;99568.88;5078525;27;62134;-61
2021/10/30 00:07:20;;;;;;;;;13.25;12.75;;;;;13.86;73.15;99572.97;5078147;27;69090;-62
2021/10/30 00:09:46;;;;;;;;;14.75;14.00;;;;;13.87;73.40;99561.41;5079060;28;45216;-62
2021/10/30 00:12:11;;;;;;;;;13.50;12.25;;;;;13.87;73.61;99549.03;5079022;27;45161;-61
2021/10/30 00:14:37;;;;;;;;;13.00;11.75;;;;;13.88;73.58;99534.81;5078182;27;66428;-61
2021/10/30 00:17:02;;;;;;;;;12.75;12.75;;;;;13.90;73.59;99534.63;5078995;27;45230;-60
2021/10/30 00:19:28;;;;;;;;;11.00;11.00;;;;;13.90;73.41;99542.56;5077184;28;58895;-60
2021/10/30 00:21:53;;;;;;;;;13.75;13.50;;;;;13.90;73.82;99534.63;5077409;28;45244;-61
2021/10/30 00:24:19;;;;;;;;;12.00;12.00;;;;;13.90;73.97;99542.56;5078462;27;46358;-61
2021/10/30 00:26:44;;;;;;;;;14.75;13.50;;;;;13.92;73.95;99535.28;5078672;27;45902;-61
2021/10/30 00:29:10;;;;;;;;;14.00;13.00;;;;;13.93;73.73;99526.34;5078911;27;45484;-62
2021/10/30 00:31:35;;;;;;;;;11.50;10.00;;;;;13.93;73.43;99526.34;5077775;28;68430;-61
2021/10/30 00:34:01;;;;;;;;;11.75;10.25;;;;;13.93;73.48;99526.34;5077745;28;65393;-61
2021/10/30 00:36:26;;;;;;;;;13.00;10.00;;;;;13.93;73.72;99515.78;5077576;27;71329;-62
2021/10/30 00:38:52;;;;;;;;;11.75;9.50;;;;;13.93;73.87;99524.53;5078708;28;45507;-60
2021/10/30 00:41:17;;;;;;;;;11.50;10.50;;;;;13.93;73.80;99531.63;5078473;27;45557;-60
2021/10/30 00:43:44;;;;;;;;;11.00;10.75;;;;;13.94;73.86;99538.53;5078294;28;46122;-61
2021/10/30 00:46:09;;;;;;;;;12.75;12.00;;;;;13.95;73.61;99542.81;5078383;27;45902;-61
2021/10/30 00:48:34;;;;;;;;;15.00;11.00;;;;;13.94;73.66;99530.63;5077330;28;45451;-60
2021/10/30 00:51:00;;;;;;;;;11.00;10.00;;;;;13.94;73.84;99530.63;5077529;28;67537;-62
2021/10/30 00:53:31;;;;;;;;;13.75;13.00;;;;;13.96;74.21;99525.97;5076345;28;45400;-61
2021/10/30 00:56:00;;;;;;;;;12.75;10.75;;;;;13.96;73.68;99499.56;5077243;28;45858;-61
2021/10/30 00:58:28;;;;;;;;;11.50;10.25;;;;;13.97;74.11;99501.22;5076226;28;45412;-62
2021/10/30 01:00:53;;;;;;;;;11.75;10.25;;;;;13.95;74.02;99504.06;5077119;27;45442;-61
2021/10/30 01:03:19;;;;;;;;;13.00;10.00;;;;;13.95;73.94;99498.78;5076931;27;45711;-61
2021/10/30 01:05:44;;;;;;;;;11.75;10.00;;;;;13.96;74.08;99504.84;5078154;27;45382;-61
2021/10/30 01:08:13;;;;;;;;;9.25;8.25;;;;;13.94;74.24;99488.38;5077013;28;45359;-61
2021/10/30 01:10:38;;;;;;;;;10.00;9.75;;;;;13.94;74.16;99498.94;5078080;27;45261;-61
2021/10/30 01:13:04;;;;;;;;;14.25;8.25;;;;;13.94;74.16;99483.09;5059650;28;49209;-62
2021/10/30 01:15:29;;;;;;;;;12.25;10.25;;;;;13.93;74.64;99484.09;5077108;27;70773;-61
2021/10/30 01:17:55;;;;;;;;;12.00;10.00;;;;;13.93;74.61;99492.00;5077965;27;45231;-61
2021/10/30 01:20:21;;;;;;;;;15.00;11.25;;;;;13.93;74.95;99479.66;5059011;28;61594;-62
2021/10/30 01:22:46;;;;;;;;;11.75;11.25;;;;;13.91;74.94;99472.91;5076773;28;45666;-61
2021/10/30 01:25:11;;;;;;;;;9.50;7.25;;;;;13.90;74.75;99463.34;5077558;28;45437;-60
2021/10/30 01:27:37;;;;;;;;;13.25;11.75;;;;;13.91;74.66;99454.41;5077014;27;64102;-62
2021/10/30 01:30:02;;;;;;;;;12.50;10.50;;;;;13.90;74.88;99452.78;5075965;28;58686;-62
2021/10/30 01:32:28;;;;;;;;;9.25;8.00;;;;;13.87;75.25;99446.06;5077509;27;45290;-61
2021/10/30 01:34:53;;;;;;;;;10.00;9.25;;;;;13.87;74.77;99440.78;5077127;28;55863;-63
2021/10/30 01:37:19;;;;;;;;;8.25;8.25;;;;;13.89;74.84;99438.75;5077022;28;59164;-63
2021/10/30 01:39:44;;;;;;;;;13.25;9.75;;;;;13.89;74.77;99446.69;5077761;28;45301;-61
2021/10/30 01:42:09;;;;;;;;;10.00;9.00;;;;;13.90;74.89;99442.22;5077030;28;59342;-62
2021/10/30 01:44:35;;;;;;;;;9.25;9.00;;;;;13.89;74.71;99438.75;5076695;27;67132;-62
2021/10/30 01:47:01;;;;;;;;;13.25;9.00;;;;;13.90;75.12;99436.94;5076741;28;62737;-61
2021/10/30 01:49:27;;;;;;;;;10.25;9.75;;;;;13.91;75.16;99435.94;5077493;27;45354;-61
2021/10/30 01:51:52;;;;;;;;;9.00;9.00;;;;;13.92;75.28;99429.63;5076204;27;45512;-61
2021/10/30 01:54:18;;;;;;;;;11.75;11.50;;;;;13.92;75.07;99430.47;5076010;27;45398;-61
2021/10/30 01:56:43;;;;;;;;;10.75;9.50;;;;;13.92;74.67;99427.84;5076118;28;45354;-61
2021/10/30 01:59:08;;;;;;;;;9.00;9.00;;;;;13.92;74.79;99421.72;5076565;28;66994;-62
2021/10/30 02:01:34;;;;;;;;;8.75;8.75;;;;;13.90;75.39;99421.91;5076589;28;63003;-61
2021/10/30 02:04:00;;;;;;;;;10.75;10.50;;;;;13.91;75.25;99417.44;5076782;28;45174;-62
2021/10/30 02:06:25;;;;;;;;;10.00;10.00;;;;;13.91;75.37;99412.16;5075950;28;55908;-61
2021/10/30 02:08:51;;;;;;;;;13.00;11.00;;;;;13.91;75.30;99417.44;5075351;28;56282;-62
2021/10/30 02:11:16;;;;;;;;;11.75;10.50;;;;;13.90;75.28;99403.44;5077109;27;45546;-62
2021/10/30 02:13:42;;;;;;;;;13.25;10.00;;;;;13.90;75.18;99394.69;5076710;28;51238;-62
2021/10/30 02:16:07;;;;;;;;;11.50;10.00;;;;;13.90;75.53;99392.03;5077282;27;45533;-62
2021/10/30 02:18:32;;;;;;;;;10.00;9.25;;;;;13.91;75.43;99383.13;5077034;28;45611;-61
2021/10/30 02:20:58;;;;;;;;;12.00;9.75;;;;;13.92;74.90;99366.28;5075085;27;63752;-61
2021/10/30 02:23:23;;;;;;;;;15.25;10.25;;;;;13.92;75.28;99361.00;5076093;28;56852;-61
2021/10/30 02:25:49;;;;;;;;;13.00;11.75;;;;;13.91;75.50;99365.47;5077044;28;45656;-61
2021/10/30 02:28:14;;;;;;;;;9.75;9.75;;;;;13.91;75.40;99357.53;5074874;28;60587;-61
2021/10/30 02:30:40;;;;;;;;;10.25;10.25;;;;;13.92;75.34;99355.72;5075401;28;46415;-62
2021/10/30 02:33:05;;;;;;;;;12.00;10.75;;;;;13.91;75.01;99346.97;5076643;28;45383;-61
2021/10/30 02:35:31;;;;;;;;;12.25;11.00;;;;;13.89;75.14;99341.06;5076650;28;45316;-62
2021/10/30 02:37:56;;;;;;;;;12.00;9.75;;;;;13.91;75.59;99338.22;5076614;28;45326;-61
2021/10/30 02:40:21;;;;;;;;;12.00;11.50;;;;;13.91;75.39;99332.94;5075740;27;68974;-61
2021/10/30 02:42:47;;;;;;;;;12.50;11.00;;;;;13.89;75.51;99329.69;5076567;28;45331;-61
2021/10/30 02:45:12;;;;;;;;;16.50;11.25;;;;;13.89;75.13;99327.88;5075852;28;61129;-62
2021/10/30 02:47:38;;;;;;;;;13.25;12.00;;;;;13.89;74.94;99321.75;5076508;28;45654;-62
2021/10/30 02:50:04;;;;;;;;;12.75;12.00;;;;;13.88;75.14;99309.56;5074811;28;46313;-61
2021/10/30 02:52:29;;;;;;;;;9.50;9.50;;;;;13.87;74.93;99305.28;5075278;28;45353;-62
2021/10/30 02:54:54;;;;;;;;;11.25;10.25;;;;;13.87;75.12;99315.84;5076536;28;45459;-61
2021/10/30 02:57:20;;;;;;;;;13.75;11.75;;;;;13.86;75.14;99307.13;5075562;27;65300;-62
2021/10/30 02:59:45;;;;;;;;;12.50;11.75;;;;;13.86;75.42;99303.66;5076280;28;47327;-61
2021/10/30 03:02:11;;;;;;;;;10.75;10.25;;;;;13.87;75.16;99305.28;5076333;28;45463;-61
2021/10/30 03:04:36;;;;;;;;;12.50;11.50;;;;;13.86;75.09;99298.38;5076648;28;45250;-61
2021/10/30 03:07:02;;;;;;;;;11.25;10.00;;;;;13.86;75.25;99298.38;5075277;28;45311;-62
2021/10/30 03:09:27;;;;;;;;;10.00;10.00;;;;;13.86;75.13;99285.16;5075328;28;73902;-61
2021/10/30 03:11:52;;;;;;;;;13.25;11.75;;;;;13.87;75.07;99273.59;5075632;27;65627;-61
2021/10/30 03:14:18;;;;;;;;;11.00;11.00;;;;;13.87;74.77;99268.31;5075803;28;59494;-61
2021/10/30 03:16:43;;;;;;;;;9.75;9.75;;;;;13.88;74.80;99275.22;5077097;28;64054;-61
2021/10/30 03:19:08;;;;;;;;;11.00;11.00;;;;;13.88;74.66;99269.94;5077806;27;68885;-62
2021/10/30 03:21:34;;;;;;;;;15.75;13.50;;;;;13.88;74.65;99264.66;5078850;27;68666;-61
2021/10/30 03:23:59;;;;;;;;;14.00;12.50;;;;;13.87;74.91;99255.13;5078276;28;45433;-61
2021/10/30 03:26:24;;;;;;;;;11.50;11.50;;;;;13.87;74.91;99253.31;5079086;28;64332;-62
2021/10/30 03:28:50;;;;;;;;;14.00;13.25;;;;;13.86;75.08;99242.91;5079553;28;45411;-62
2021/10/30 03:31:15;;;;;;;;;11.75;11.00;;;;;13.86;74.46;99232.34;5078826;28;64131;-60
2021/10/30 03:33:41;;;;;;;;;13.25;12.50;;;;;13.87;74.84;99231.34;5079101;27;57941;-62
2021/10/30 03:36:06;;;;;;;;;13.25;12.25;;;;;13.86;74.43;99230.56;5079820;27;45298;-61
2021/10/30 03:38:32;;;;;;;;;12.25;12.00;;;;;13.85;74.44;99234.19;5079251;28;46322;-61
2021/10/30 03:40:57;;;;;;;;;12.75;11.50;;;;;13.85;74.51;99225.44;5078689;28;63980;-62
2021/10/30 03:43:22;;;;;;;;;11.00;11.00;;;;;13.84;74.88;99218.53;5079434;28;45328;-61
2021/10/30 03:45:48;;;;;;;;;12.00;10.50;;;;;13.83;74.79;99223.00;5078837;27;62233;-61
2021/10/30 03:48:17;;;;;;;;;10.25;10.25;;;;;13.83;74.60;99219.53;5078452;27;66127;-62
2021/10/30 03:50:42;;;;;;;;;13.25;11.25;;;;;13.83;74.53;99214.25;5078148;27;45408;-62
2021/10/30 03:53:08;;;;;;;;;13.75;11.25;;;;;13.83;74.46;99209.81;5079240;28;45378;-62
2021/10/30 03:55:33;;;;;;;;;15.25;12.00;;;;;13.84;74.47;99200.03;5078504;27;60699;-62
2021/10/30 03:57:59;;;;;;;;;13.75;12.75;;;;;13.83;74.57;99204.53;5077868;28;46447;-61
2021/10/30 04:00:24;;;;;;;;;14.25;12.25;;;;;13.83;74.66;99208.97;5078176;28;68097;-61
2021/10/30 04:02:49;;;;;;;;;15.00;11.75;;;;;13.82;74.10;99202.88;5079157;28;45427;-61
2021/10/30 04:05:15;;;;;;;;;16.25;12.75;;;;;13.82;74.49;99207.34;5078000;27;68800;-61
2021/10/30 04:07:41;;;;;;;;;14.00;14.00;;;;;13.79;74.32;99209.34;5078825;27;47079;-61
2021/10/30 04:10:06;;;;;;;;;13.75;12.25;;;;;13.79;73.86;99198.00;5078869;27;45302;-61
2021/10/30 04:12:32;;;;;;;;;12.00;11.75;;;;;13.76;74.02;99193.91;5078457;28;45370;-62
2021/10/30 04:14:57;;;;;;;;;15.25;12.00;;;;;13.76;74.61;99196.56;5077606;28;45290;-61
2021/10/30 04:17:23;;;;;;;;;11.25;11.00;;;;;13.74;74.00;99198.56;5078635;28;46144;-62
2021/10/30 04:19:48;;;;;;;;;12.00;12.00;;;;;13.74;74.41;99198.56;5077955;27;64367;-62
2021/10/30 04:22:13;;;;;;;;;12.50;10.75;;;;;13.75;73.88;99199.38;5078884;27;45314;-61
2021/10/30 04:24:39;;;;;;;;;13.00;10.25;;;;;13.75;73.99;99202.00;5077989;28;59362;-61
2021/10/30 04:27:06;;;;;;;;;11.25;10.50;;;;;13.74;74.63;99198.56;5078009;27;45731;-61
2021/10/30 04:29:31;;;;;;;;;12.25;11.25;;;;;13.72;74.73;99197.13;5077869;28;45251;-60
2021/10/30 04:31:58;;;;;;;;;11.00;9.75;;;;;13.71;74.64;99188.38;5077441;27;45312;-61
2021/10/30 04:34:34;;;;;;;;;12.25;9.75;;;;;13.71;74.64;99193.66;5078596;27;45482;-61
2021/10/30 04:37:02;;;;;;;;;8.25;7.50;;;;;13.71;74.68;99191.03;5076977;27;47101;-62
2021/10/30 04:39:27;;;;;;;;;9.00;8.75;;;;;13.71;74.67;99188.38;5078515;28;45341;-61
2021/10/30 04:41:53;;;;;;;;;12.50;9.75;;;;;13.72;74.39;99191.84;5077680;28;64698;-61
2021/10/30 04:44:18;;;;;;;;;12.25;10.00;;;;;13.70;74.81;99191.19;5076486;28;65187;-62
2021/10/30 04:46:43;;;;;;;;;8.75;7.50;;;;;13.69;74.54;99190.41;5077541;28;66897;-61
2021/10/30 04:49:09;;;;;;;;;11.50;8.25;;;;;13.69;74.92;99193.03;5059602;28;58499;-61
2021/10/30 04:51:34;;;;;;;;;9.00;8.75;;;;;13.70;74.85;99197.31;5078430;27;45251;-62
2021/10/30 04:53:59;;;;;;;;;9.00;8.00;;;;;13.71;75.01;99184.91;5076198;27;67050;-61
2021/10/30 04:56:25;;;;;;;;;8.25;6.75;;;;;13.72;74.74;99191.84;5077622;27;62455;-62
2021/10/30 04:58:50;;;;;;;;;8.25;8.00;;;;;13.73;75.09;99196.09;5078243;28;45211;-61
2021/10/30 05:01:16;;;;;;;;;6.75;6.25;;;;;13.71;75.13;99201.59;5078382;28;45480;-61
2021/10/30 05:03:41;;;;;;;;;8.00;7.50;;;;;13.74;75.15;99200.38;5078234;27;45345;-62
2021/10/30 05:06:08;;;;;;;;;10.75;8.00;;;;;13.74;74.81;99197.75;5077906;28;45418;-61
2021/10/30 05:08:33;;;;;;;;;7.00;7.00;;;;;13.74;74.86;99200.38;5076679;28;45402;-62
2021/10/30 05:10:59;;;;;;;;;8.00;8.00;;;;;13.75;75.19;99196.72;5077667;28;49041;-61
2021/10/30 05:13:24;;;;;;;;;8.75;7.50;;;;;13.75;75.26;99192.28;5077988;28;45585;-62
2021/10/30 05:15:49;;;;;;;;;6.75;6.50;;;;;13.74;75.33;99190.66;5077063;28;69874;-61
2021/10/30 05:18:15;;;;;;;;;7.00;7.00;;;;;13.75;75.28;99173.81;5076618;28;45418;-62
2021/10/30 05:20:40;;;;;;;;;9.25;8.00;;;;;13.76;75.18;99182.53;5078025;27;45652;-62
2021/10/30 05:23:06;;;;;;;;;6.00;6.00;;;;;13.78;75.17;99181.31;5075442;27;64084;-62
2021/10/30 05:25:31;;;;;;;;;8.50;5.75;;;;;13.78;75.39;99167.31;5076512;28;71372;-62
2021/10/30 05:27:56;;;;;;;;;7.00;7.00;;;;;13.78;75.48;99170.75;5077697;28;45345;-60
2021/10/30 05:30:22;;;;;;;;;7.75;6.75;;;;;13.78;75.39;99169.97;5077040;28;60296;-62
2021/10/30 05:32:47;;;;;;;;;6.25;6.00;;;;;13.78;75.59;99176.03;5077663;28;45279;-61
2021/10/30 05:35:13;;;;;;;;;8.00;7.00;;;;;13.80;75.42;99176.66;5076711;28;68775;-62
2021/10/30 05:37:38;;;;;;;;;6.00;6.00;;;;;13.79;75.56;99175.03;5076669;27;68258;-61
2021/10/30 05:40:07;;;;;;;;;7.00;5.50;;;;;13.78;75.75;99170.75;5076794;27;60623;-61
2021/10/30 05:42:34;;;;;;;;;9.50;6.75;;;;;13.78;75.45;99170.75;5077601;28;45634;-61
2021/10/30 05:45:00;;;;;;;;;6.00;5.75;;;;;13.78;75.34;99172.59;5076132;28;45351;-62
2021/10/30 05:47:25;;;;;;;;;7.00;7.00;;;;;13.78;75.58;99167.31;5076642;28;66452;-62
2021/10/30 05:49:52;;;;;;;;;6.00;6.00;;;;;13.78;75.47;99172.59;5059066;28;45435;-62
2021/10/30 05:52:17;;;;;;;;;9.50;6.25;;;;;13.80;75.40;99166.09;5059587;28;45479;-61
2021/10/30 05:54:43;;;;;;;;;8.00;6.75;;;;;13.79;75.46;99164.47;5076270;28;71937;-62
2021/10/30 05:57:10;;;;;;;;;7.25;6.00;;;;;13.81;75.62;99164.28;5077235;28;45492;-61
2021/10/30 05:59:35;;;;;;;;;6.00;5.00;;;;;13.79;75.77;99155.75;5077493;28;45216;-62
2021/10/30 06:02:01;;;;;;;;;7.50;5.50;;;;;13.79;75.82;99161.84;5076483;27;60504;-62
2021/10/30 06:04:26;;;;;;;;;8.00;6.00;;;;;13.82;75.81;99157.19;5076262;28;69777;-62
2021/10/30 06:06:51;;;;;;;;;5.50;5.50;;;;;13.83;76.30;99158.81;5077251;27;45192;-61
2021/10/30 06:09:18;;;;;;;;;10.00;10.00;;;;;13.84;76.15;99152.53;5077258;27;45242;-62
2021/10/30 06:11:43;;;;;;;;;16.00;15.50;;;;;13.85;76.11;99159.44;5077178;27;45223;-62
2021/10/30 06:14:10;;;;;;;;;6.00;6.00;;;;;13.83;75.70;99162.28;5076915;28;46050;-61
2021/10/30 06:16:35;;;;;;;;;5.00;5.00;;;;;13.84;75.90;99163.91;5075107;28;46019;-61
2021/10/30 06:19:01;;;;;;;;;6.00;6.00;;;;;13.85;75.96;99152.34;5076591;28;45367;-61
2021/10/30 06:21:29;;;;;;;;;7.00;6.00;;;;;13.84;76.46;99153.34;5076184;28;65445;-62
2021/10/30 06:23:58;;;;;;;;;6.50;6.00;;;;;13.85;76.30;99154.16;5076623;28;45312;-61
2021/10/30 06:26:24;;;;;;;;;33.00;31.00;;;;;13.86;76.35;99156.63;5075481;28;45943;-61
2021/10/30 06:28:49;;;;;;;;;6.25;6.25;;;;;13.87;76.52;99157.41;5077131;27;45516;-61
2021/10/30 06:31:15;;;;;;;;;9.25;8.00;;;;;13.87;76.32;99157.41;5076931;28;45466;-61
2021/10/30 06:33:41;;;;;;;;;7.00;6.00;;;;;13.89;76.26;99158.06;5076726;28;46023;-61
2021/10/30 06:36:07;;;;;;;;;6.00;6.00;;;;;13.90;76.28;99151.75;5076866;28;45952;-61
2021/10/30 06:38:32;;;;;;;;;7.50;7.00;;;;;13.92;76.72;99155.84;5074705;28;45413;-61
2021/10/30 06:41:00;;;;;;;;;8.50;6.25;;;;;13.92;76.10;99157.66;5075685;28;61707;-61
2021/10/30 06:43:25;;;;;;;;;4.25;4.25;;;;;13.92;76.80;99155.03;5076573;28;45333;-62
2021/10/30 06:45:51;;;;;;;;;6.50;6.25;;;;;13.93;76.71;99152.22;5076606;28;45173;-62
2021/10/30 06:48:16;;;;;;;;;5.00;5.00;;;;;13.93;76.27;99154.84;5076314;28;55327;-62
2021/10/30 06:50:42;;;;;;;;;6.00;5.00;;;;;13.93;76.13;99152.22;5075925;28;45234;-62
2021/10/30 06:53:07;;;;;;;;;4.50;4.50;;;;;13.94;75.98;99155.66;5075913;28;57862;-62
2021/10/30 06:55:32;;;;;;;;;5.00;5.00;;;;;13.94;76.35;99153.84;5075522;28;66169;-61
2021/10/30 06:57:58;;;;;;;;;6.25;5.50;;;;;13.93;76.23;99149.56;5076452;27;45278;-61
2021/10/30 07:00:23;;;;;;;;;7.00;5.00;;;;;13.93;75.90;99146.94;5074770;28;45182;-62
2021/10/30 07:02:51;;;;;;;;;7.50;5.50;;;;;13.94;75.82;99143.28;5076302;27;45338;-62
2021/10/30 07:05:17;;;;;;;;;4.25;4.00;;;;;13.93;75.81;99136.38;5075094;28;45783;-62
2021/10/30 07:07:42;;;;;;;;;4.00;4.00;;;;;13.94;76.23;99134.53;5074975;28;45367;-62
2021/10/30 07:10:08;;;;;;;;;6.25;4.00;;;;;13.93;75.76;99141.66;5076308;28;45377;-62
2021/10/30 07:12:35;;;;;;;;;6.25;5.00;;;;;13.93;76.40;99133.72;5076102;28;47363;-62
2021/10/30 07:15:00;;;;;;;;;7.00;5.00;;;;;13.94;75.81;99139.81;5076161;27;45954;-61
2021/10/30 07:17:25;;;;;;;;;8.50;6.50;;;;;13.94;76.17;99138.00;5076400;28;45279;-61
2021/10/30 07:19:51;;;;;;;;;7.50;7.00;;;;;13.95;76.01;99146.72;5075747;28;53061;-62
2021/10/30 07:22:16;;;;;;;;;5.75;5.75;;;;;13.95;76.12;99136.16;5075542;28;52004;-62
2021/10/30 07:24:43;;;;;;;;;9.00;9.00;;;;;13.97;76.28;99144.72;5074771;28;69903;-61
2021/10/30 07:27:08;;;;;;;;;8.75;7.50;;;;;13.98;75.72;99138.41;5076164;28;45269;-62
2021/10/30 07:29:34;;;;;;;;;4.25;4.25;;;;;13.99;76.22;99144.53;5076113;27;45377;-62
2021/10/30 07:31:59;;;;;;;;;7.50;7.00;;;;;14.00;75.88;99143.53;5075552;28;54832;-61
2021/10/30 07:34:25;;;;;;;;;6.50;6.00;;;;;14.01;76.12;99148.59;5075096;27;65633;-60
2021/10/30 07:36:50;;;;;;;;;6.75;6.25;;;;;14.02;75.80;99144.16;5075188;27;64062;-61
2021/10/30 07:39:15;;;;;;;;;7.25;5.00;;;;;14.03;75.65;99132.56;5075337;28;59059;-62
2021/10/30 07:41:41;;;;;;;;;4.25;3.50;;;;;14.03;75.78;99141.31;5075681;28;45314;-61
2021/10/30 07:44:07;;;;;;;;;5.75;4.50;;;;;14.03;76.01;99133.38;5075736;28;45362;-61
2021/10/30 07:46:32;;;;;;;;;4.25;4.25;;;;;14.06;75.77;99143.56;5075097;28;65023;-62
2021/10/30 07:48:57;;;;;;;;;4.25;4.00;;;;;14.09;75.75;99135.25;5075653;27;45516;-62
2021/10/30 07:51:23;;;;;;;;;4.00;4.00;;;;;14.11;76.00;99137.69;5075019;28;45490;-62
2021/10/30 07:53:48;;;;;;;;;6.50;4.75;;;;;14.13;75.61;99151.50;5075358;28;45418;-61
2021/10/30 07:56:15;;;;;;;;;5.25;3.25;;;;;14.15;75.59;99151.34;5074811;28;60698;-61
2021/10/30 07:58:40;;;;;;;;;4.25;4.25;;;;;14.18;75.69;99149.09;5075413;28;45384;-62
2021/10/30 08:01:06;;;;;;;;;4.25;3.75;;;;;14.20;75.87;99152.38;5075503;28;45794;-61
2021/10/30 08:03:32;;;;;;;;;5.00;4.75;;;;;14.21;75.32;99150.56;5076777;28;45383;-62
2021/10/30 08:05:57;;;;;;;;;4.00;4.00;;;;;14.25;75.70;99167.66;5079179;28;45231;-61
2021/10/30 08:08:23;;;;;;;;;5.50;4.00;;;;;14.25;75.53;99165.03;5078911;28;45565;-61
2021/10/30 08:10:48;;;;;;;;;4.00;4.00;;;;;14.27;75.64;99163.00;5077824;27;70984;-61
2021/10/30 08:13:13;;;;;;;;;5.00;4.00;;;;;14.30;75.47;99167.06;5076933;28;61353;-61
2021/10/30 08:15:39;;;;;;;;;2.50;2.50;;;;;14.31;75.42;99173.97;5078878;27;45790;-61
2021/10/30 08:18:04;;;;;;;;;7.00;5.50;;;;;14.32;75.57;99175.63;5076910;27;45386;-61
2021/10/30 08:20:31;;;;;;;;;4.00;4.00;;;;;14.34;75.32;99178.88;5077793;27;68008;-61
2021/10/30 08:22:57;;;;;;;;;6.75;5.00;;;;;14.34;75.47;99184.97;5078550;27;45379;-63
2021/10/30 08:25:22;;;;;;;;;5.50;5.50;;;;;14.36;75.36;99185.59;5078546;28;45376;-62
2021/10/30 08:27:47;;;;;;;;;6.00;4.00;;;;;14.37;75.33;99181.94;5077853;28;64732;-62
2021/10/30 08:30:13;;;;;;;;;4.75;4.00;;;;;14.40;75.48;99193.97;5077721;27;69815;-62
2021/10/30 08:32:38;;;;;;;;;4.00;4.00;;;;;14.42;75.02;99199.03;5077657;28;66985;-61
2021/10/30 08:35:04;;;;;;;;;5.00;5.00;;;;;14.42;75.17;99186.66;5077166;28;63261;-62
2021/10/30 08:37:29;;;;;;;;;4.00;4.00;;;;;14.43;75.05;99187.47;5077772;27;45234;-62
2021/10/30 08:39:55;;;;;;;;;3.50;3.50;;;;;14.45;75.27;99190.72;5078159;27;45380;-61
2021/10/30 08:42:21;;;;;;;;;6.00;5.25;;;;;14.46;75.54;99187.06;5077830;27;62304;-61
2021/10/30 08:44:46;;;;;;;;;5.25;4.50;;;;;14.48;75.51;99193.81;5078108;28;45388;-63
2021/10/30 08:47:12;;;;;;;;;3.50;3.50;;;;;14.49;75.16;99192.81;5060289;28;45487;-61
2021/10/30 08:49:38;;;;;;;;;5.00;5.00;;;;;14.50;75.18;99194.44;5060211;28;45606;-61
2021/10/30 08:52:05;;;;;;;;;5.25;4.50;;;;;14.51;75.36;99196.06;5076433;28;62672;-61
2021/10/30 08:54:30;;;;;;;;;5.75;5.75;;;;;14.53;75.41;99190.56;5078038;28;45340;-62
2021/10/30 08:56:55;;;;;;;;;7.25;5.25;;;;;14.54;75.27;99197.50;5078343;28;45360;-61
2021/10/30 08:59:42;;;;;;;;;5.25;5.25;;;;;14.55;75.17;99193.84;5076701;27;72669;-62
2021/10/30 09:02:08;;;;;;;;;4.75;3.75;;;;;14.58;75.45;99185.53;5077361;27;45471;-61
2021/10/30 09:04:33;;;;;;;;;4.50;3.25;;;;;14.60;75.30;99191.44;5077903;28;45397;-61
2021/10/30 09:07:01;;;;;;;;;4.00;4.00;;;;;14.62;75.25;99193.84;5077564;28;45331;-61
2021/10/30 09:09:27;;;;;;;;;7.25;7.00;;;;;14.64;75.14;99184.75;5077403;28;47796;-62
2021/10/30 09:11:56;;;;;;;;;5.50;4.75;;;;;14.66;74.90;99197.75;5077721;27;47028;-61
2021/10/30 09:14:23;;;;;;;;;7.00;7.00;;;;;14.66;74.93;99195.09;5076065;27;45549;-61
2021/10/30 09:17:11;;;;;;;;;5.25;5.25;;;;;14.68;75.25;99199.19;5077799;27;45315;-62
2021/10/30 09:19:39;;;;;;;;;4.25;4.25;;;;;14.69;74.89;99192.94;5077677;27;45243;-62
2021/10/30 09:22:05;;;;;;;;;5.00;5.00;;;;;14.71;74.98;99203.28;5076958;28;45356;-61
2021/10/30 09:24:30;;;;;;;;;6.25;6.25;;;;;14.72;75.06;99202.28;5077374;27;45311;-62
2021/10/30 09:26:56;;;;;;;;;5.75;4.25;;;;;14.73;75.31;99200.47;5076715;28;45428;-61
2021/10/30 09:29:21;;;;;;;;;4.50;4.50;;;;;14.74;75.29;99199.47;5077594;27;45358;-61
2021/10/30 09:31:47;;;;;;;;;5.50;5.00;;;;;14.71;75.34;99202.50;5076956;28;63626;-61
2021/10/30 09:34:13;;;;;;;;;6.50;6.50;;;;;14.71;75.18;99202.50;5059706;28;45410;-62
2021/10/30 09:36:39;;;;;;;;;5.25;5.25;;;;;14.73;75.13;99203.13;5076332;28;45415;-62
2021/10/30 09:39:12;;;;;;;;;8.50;7.75;;;;;14.71;75.35;99194.56;5077264;28;45414;-61
2021/10/30 09:41:41;;;;;;;;;5.75;5.75;;;;;14.69;74.86;99203.50;5077357;28;45817;-62
2021/10/30 09:44:09;;;;;;;;;4.75;4.75;;;;;14.71;75.34;99205.13;5077583;28;45295;-62
2021/10/30 09:46:37;;;;;;;;;8.50;7.25;;;;;14.68;75.61;99204.50;5077421;28;45232;-62
2021/10/30 09:49:16;;;;;;;;;6.50;4.50;;;;;14.68;75.36;99203.66;5077124;27;45811;-63
2021/10/30 09:51:43;;;;;;;;;5.00;5.00;;;;;14.67;75.76;99202.84;5075988;28;45233;-62
2021/10/30 09:54:09;;;;;;;;;5.75;5.75;;;;;14.65;75.56;99196.94;5077277;27;45328;-62
2021/10/30 09:56:42;;;;;;;;;7.75;5.00;;;;;14.66;75.71;99190.66;5076497;28;56324;-63
2021/10/30 09:59:16;;;;;;;;;6.25;5.00;;;;;14.64;75.62;99195.31;5075593;28;45488;-61
2021/10/30 10:01:46;;;;;;;;;8.50;6.50;;;;;14.64;75.82;99205.06;5076515;27;61836;-61
2021/10/30 10:04:12;;;;;;;;;8.00;5.75;;;;;14.65;75.93;99198.75;5076038;28;45292;-62
2021/10/30 10:06:38;;;;;;;;;7.00;6.50;;;;;14.65;76.05;99196.94;5077273;28;45452;-62
2021/10/30 10:09:03;;;;;;;;;6.25;5.00;;;;;14.67;75.99;99192.28;5057801;28;73443;-61
2021/10/30 10:11:29;;;;;;;;;5.00;5.00;;;;;14.67;75.36;99194.09;5077100;27;45410;-62
2021/10/30 10:13:54;;;;;;;;;7.50;7.00;;;;;14.65;75.75;99186.38;5075323;27;50574;-61
2021/10/30 10:16:21;;;;;;;;;10.75;9.00;;;;;14.64;76.02;99184.75;5058712;28;45593;-60
2021/10/30 10:18:48;;;;;;;;;10.00;9.00;;;;;14.65;75.99;99186.38;5058423;28;46649;-62
2021/10/30 10:21:26;;;;;;;;;9.00;6.50;;;;;14.65;75.88;99191.66;5076719;27;45693;-61
2021/10/30 10:23:51;;;;;;;;;7.50;5.75;;;;;14.64;75.80;99195.31;5075361;27;45496;-61
2021/10/30 10:26:17;;;;;;;;;4.25;4.25;;;;;14.65;75.83;99198.75;5075886;28;45410;-62
2021/10/30 10:28:43;;;;;;;;;12.50;11.50;;;;;14.64;75.73;99205.06;5076416;27;46242;-61
2021/10/30 10:31:12;;;;;;;;;6.50;6.50;;;;;14.66;76.18;99197.75;5076492;28;45447;-62
2021/10/30 10:33:39;;;;;;;;;6.25;5.25;;;;;14.68;75.70;99204.50;5075153;28;45325;-61
2021/10/30 10:36:13;;;;;;;;;3.75;3.75;;;;;14.70;75.85;99209.59;5075229;27;45220;-62
2021/10/30 10:38:57;;;;;;;;;4.75;4.75;;;;;14.71;75.84;99216.50;5076350;28;46268;-61
2021/10/30 10:41:37;;;;;;;;;3.50;3.50;;;;;14.72;76.01;99215.50;5076578;28;45232;-61
2021/10/30 10:44:13;;;;;;;;;5.50;4.50;;;;;14.75;75.83;99216.97;5076658;28;45372;-62
2021/10/30 10:46:40;;;;;;;;;5.75;4.75;;;;;14.75;75.94;99209.81;5076120;27;45373;-61
2021/10/30 10:52:20;;;;;;;;;3.25;3.25;;;;;14.75;75.86;99225.69;5074333;27;45795;-61
2021/10/30 10:55:04;;;;;;;;;9.25;7.25;;;;;14.78;76.14;99224.50;5076582;28;45436;-62
2021/10/30 10:58:05;;;;;;;;;4.50;4.50;;;;;14.79;76.17;99215.56;5076582;28;45213;-62
2021/10/30 11:00:31;;;;;;;;;4.50;4.50;;;;;14.81;75.93;99211.69;5076343;27;45388;-61
2021/10/30 11:02:58;;;;;;;;;3.50;3.50;;;;;14.80;75.89;99217.19;5076242;28;45350;-61
2021/10/30 11:05:26;;;;;;;;;4.50;4.50;;;;;14.83;75.77;99222.09;5075331;28;45403;-61
2021/10/30 11:07:51;;;;;;;;;4.50;4.00;;;;;14.85;75.71;99217.38;5075189;27;45281;-61
2021/10/30 11:10:32;;;;;;;;;3.33;3.33;;;;;14.88;75.95;99210.91;5076170;27;45412;-61
2021/10/30 11:12:58;;;;;;;;;8.00;6.25;;;;;14.93;75.87;99211.13;5076190;28;45296;-61
2021/10/30 11:15:23;;;;;;;;;5.00;5.00;;;;;14.95;75.57;99209.91;5076019;27;45412;-62
2021/10/30 11:17:56;;;;;;;;;5.50;5.00;;;;;14.98;75.66;99211.34;5074061;28;57428;-61
2021/10/30 11:20:24;;;;;;;;;7.00;5.25;;;;;15.02;75.83;99204.66;5075897;28;45337;-62
2021/10/30 11:22:57;;;;;;;;;5.50;4.75;;;;;15.06;75.70;99208.53;5057925;28;45426;-62
2021/10/30 11:25:23;;;;;;;;;3.25;3.25;;;;;15.11;75.58;99210.59;5075920;27;45456;-61